Detall de PIREP

Printer-friendly versionPDF version

[2010/05/30 19:42:00]
Flight IATA:CT0002
Pilot Number:026
Company ICAO:CAT
Aircraft Type:DC85/A
PAX:00
Departing Airport: LFMT
Destination Airport: LFMP
Alternate Airport:LFBO
Online: VATSIM
Route:FJR
Flight Level:FL060
No Slew and time accel
No pause
Crash detect
Detect pilot in Cockpit between each 30 and 45 minutes
19:42 Zero fuel Weight: 185718 Lbs, Fuel Weight: 20002 Lbs
19:42 VATSIM:LFMT 301900Z 24016KT 200V270 9999 FEW040 BKN260 22/14 Q1017 NOSIG
19:42 VATSIM:LFMP 301930Z AUTO 30022G36KT 270V330 9999NDV NSC 23/12 Q1019
19:43 VOICE CATALONIAN / TESTING FSACARS
19:53 Parking Brakes off
20:03 Take-off
20:03 Take off Weight: 204579 Lbs
20:03 Wind: 236º @ 014 Knots Heading: 299º
20:03 POS N43º 34´ 43´´ E003º 58´ 10´´
20:03 Flaps:2 at 134 Knots
20:03 Gear Up: 134 Knots
20:04 Flaps:1 at 191 Knots
20:06 Flaps:0 at 252 Knots
20:06 TOC
20:06 Fuel Weight: 17714 Lb

20:16 TOD
20:16 Fuel Weight: 16394 Lb
20:18 Wind:296º@030 Knots Heading: 230º Ground Speed: 274 Knots Altitude 4078 ft
20:21 Flaps:1 at 224 Knots
20:25 Flaps:2 at 208 Knots
20:25 Flaps:3 at 203 Knots
20:26 Gear Down: 199 Knots
20:26 Flaps:4 at 188 Knots
20:27 Flaps:5 at 143 Knots
20:28 TouchDown:Rate -869 ft/min Speed: 130 Knots
20:28 VATSIM:LFMP 302000Z AUTO 30018KT 9999NDV NSC 22/12 Q1019
20:28 Land
20:28 Wind:312º@019 Knots
20:28 Heading: 321º
20:28 Flight Duration: 00:25
20:28 Landing Weight: 200848 Lbs
20:28 POS N42º 44´ 46´´ E002º 52´ 05´´
20:30 Parking brakes on
20:30 Block to Block Duration: 00:37
20:30 Final Fuel: 14964 Lbls
20:30 Spent Fuel: 5037 Lbls
20:30 Flight Length: 95 NM
20:30 TOD Land Length: 42 NM

Exportar CSV

Powered by Drupal - Modified by Danger4k